EZY139 EDDM-LSZH
Flight info
| Callsign | EZY139 |
|---|---|
| Flight time | N/A |
| Altitude | 22000 |
| Route | MERSI4Q MERSI Y100 MOMUK Y112 RAVED L856 NEGRA |
| Aircraft | A20N/M-SDE2E3FGHIRWXY/LB1 |
Departure
| Time | 2026-05-01 08:37 |
|---|---|
| Airport | Munich Airport (EDDM) |
Arrival
| Time | N/A |
|---|---|
| Airport | Zürich Airport (LSZH) |
| Time | Latitude | Longitude | Altitude | Speed | Heading |
|---|---|---|---|---|---|
| 2026-05-01 07:48 | 48.35529 | 11.79730 | 1460 ft | 0 kts | 84° |
| 2026-05-01 08:18 | 48.35529 | 11.79726 | 1462 ft | 3 kts | 84° |
| 2026-05-01 08:19 | 48.35525 | 11.79670 | 1464 ft | 3 kts | 84° |
| 2026-05-01 08:19 | 48.35523 | 11.79642 | 1463 ft | 3 kts | 84° |
| 2026-05-01 08:19 | 48.35524 | 11.79616 | 1459 ft | 3 kts | 112° |
| 2026-05-01 08:19 | 48.35532 | 11.79592 | 1462 ft | 3 kts | 129° |
| 2026-05-01 08:20 | 48.35542 | 11.79578 | 1467 ft | 0 kts | 172° |
| 2026-05-01 08:26 | 48.35530 | 11.79580 | 1460 ft | 7 kts | 173° |
| 2026-05-01 08:26 | 48.35466 | 11.79577 | 1470 ft | 7 kts | 194° |
| 2026-05-01 08:26 | 48.35453 | 11.79560 | 1462 ft | 0 kts | 226° |
| 2026-05-01 08:27 | 48.35447 | 11.79551 | 1464 ft | 6 kts | 220° |
| 2026-05-01 08:27 | 48.35380 | 11.79537 | 1470 ft | 10 kts | 177° |
| 2026-05-01 08:27 | 48.35313 | 11.79546 | 1468 ft | 10 kts | 174° |
| 2026-05-01 08:27 | 48.35248 | 11.79549 | 1468 ft | 9 kts | 196° |
| 2026-05-01 08:28 | 48.35180 | 11.79505 | 1470 ft | 10 kts | 191° |
| 2026-05-01 08:28 | 48.35119 | 11.79511 | 1467 ft | 9 kts | 173° |
| 2026-05-01 08:28 | 48.35059 | 11.79523 | 1466 ft | 9 kts | 173° |
| 2026-05-01 08:28 | 48.34997 | 11.79533 | 1465 ft | 9 kts | 176° |
| 2026-05-01 08:29 | 48.34941 | 11.79543 | 1469 ft | 6 kts | 173° |
| 2026-05-01 08:29 | 48.34906 | 11.79548 | 1461 ft | 0 kts | 174° |
| 2026-05-01 08:29 | 48.34849 | 11.79557 | 1461 ft | 16 kts | 171° |
| 2026-05-01 08:30 | 48.34785 | 11.79476 | 1463 ft | 18 kts | 258° |
| 2026-05-01 08:30 | 48.34771 | 11.79307 | 1467 ft | 14 kts | 263° |
| 2026-05-01 08:30 | 48.34760 | 11.79143 | 1470 ft | 17 kts | 266° |
| 2026-05-01 08:30 | 48.34744 | 11.78959 | 1470 ft | 21 kts | 262° |
| 2026-05-01 08:31 | 48.34726 | 11.78747 | 1465 ft | 20 kts | 263° |
| 2026-05-01 08:31 | 48.34715 | 11.78550 | 1468 ft | 18 kts | 264° |
| 2026-05-01 08:31 | 48.34700 | 11.78364 | 1467 ft | 18 kts | 263° |
| 2026-05-01 08:31 | 48.34687 | 11.78187 | 1470 ft | 17 kts | 263° |
| 2026-05-01 08:32 | 48.34670 | 11.77999 | 1469 ft | 23 kts | 265° |
| 2026-05-01 08:32 | 48.34650 | 11.77728 | 1462 ft | 27 kts | 263° |
| 2026-05-01 08:32 | 48.34627 | 11.77449 | 1465 ft | 27 kts | 263° |
| 2026-05-01 08:32 | 48.34603 | 11.77171 | 1469 ft | 26 kts | 263° |
| 2026-05-01 08:33 | 48.34585 | 11.76899 | 1463 ft | 26 kts | 263° |
| 2026-05-01 08:33 | 48.34566 | 11.76631 | 1460 ft | 25 kts | 263° |
| 2026-05-01 08:33 | 48.34545 | 11.76373 | 1467 ft | 25 kts | 263° |
| 2026-05-01 08:33 | 48.34525 | 11.76120 | 1469 ft | 24 kts | 263° |
| 2026-05-01 08:34 | 48.34507 | 11.75873 | 1460 ft | 23 kts | 264° |
| 2026-05-01 08:34 | 48.34487 | 11.75637 | 1464 ft | 23 kts | 261° |
| 2026-05-01 08:34 | 48.34471 | 11.75419 | 1469 ft | 18 kts | 267° |
| 2026-05-01 08:34 | 48.34452 | 11.75252 | 1468 ft | 14 kts | 238° |
| 2026-05-01 08:35 | 48.34383 | 11.75214 | 1467 ft | 10 kts | 179° |
| 2026-05-01 08:35 | 48.34295 | 11.75230 | 1460 ft | 14 kts | 173° |
| 2026-05-01 08:35 | 48.34199 | 11.75244 | 1470 ft | 8 kts | 174° |
| 2026-05-01 08:35 | 48.34192 | 11.75245 | 1470 ft | 1 kts | 174° |
| 2026-05-01 08:36 | 48.34190 | 11.75245 | 1470 ft | 0 kts | 175° |
| 2026-05-01 08:36 | 48.34157 | 11.75251 | 1468 ft | 10 kts | 172° |
| 2026-05-01 08:36 | 48.34109 | 11.75271 | 1475 ft | 9 kts | 152° |
| 2026-05-01 08:36 | 48.34085 | 11.75370 | 1477 ft | 8 kts | 76° |
| 2026-05-01 08:37 | 48.34103 | 11.75588 | 1475 ft | 50 kts | 84° |
| 2026-05-01 08:37 | 48.34166 | 11.76453 | 1472 ft | 116 kts | 83° |
| 2026-05-01 08:37 | 48.34298 | 11.77895 | 1612 ft | 153 kts | 79° |
| 2026-05-01 08:37 | 48.34451 | 11.79526 | 2112 ft | 158 kts | 81° |
| 2026-05-01 08:38 | 48.34579 | 11.81142 | 2928 ft | 162 kts | 84° |
| 2026-05-01 08:38 | 48.34700 | 11.82950 | 3462 ft | 187 kts | 86° |
| 2026-05-01 08:38 | 48.34831 | 11.84969 | 4131 ft | 199 kts | 85° |
| 2026-05-01 08:38 | 48.34979 | 11.87130 | 4770 ft | 217 kts | 85° |
| 2026-05-01 08:39 | 48.35151 | 11.89465 | 5612 ft | 229 kts | 85° |
| 2026-05-01 08:39 | 48.35329 | 11.91873 | 6546 ft | 232 kts | 85° |
| 2026-05-01 08:39 | 48.35285 | 11.94302 | 7123 ft | 236 kts | 102° |
| 2026-05-01 08:39 | 48.34592 | 11.96531 | 7363 ft | 242 kts | 128° |
| 2026-05-01 08:40 | 48.32010 | 11.99850 | 7396 ft | 245 kts | 140° |
| 2026-05-01 08:40 | 48.30636 | 12.01372 | 7392 ft | 246 kts | 143° |
| 2026-05-01 08:40 | 48.29082 | 12.02467 | 7392 ft | 250 kts | 163° |
| 2026-05-01 08:41 | 48.27314 | 12.02718 | 7600 ft | 265 kts | 178° |
| 2026-05-01 08:41 | 48.25437 | 12.02187 | 8254 ft | 285 kts | 199° |
| 2026-05-01 08:41 | 48.23832 | 12.00383 | 9235 ft | 295 kts | 230° |
| 2026-05-01 08:41 | 48.22735 | 11.97752 | 10182 ft | 303 kts | 244° |
| 2026-05-01 08:42 | 48.21955 | 11.94767 | 10893 ft | 317 kts | 252° |
| 2026-05-01 08:42 | 48.21523 | 11.92619 | 11143 ft | 333 kts | 255° |
| 2026-05-01 08:42 | 48.20915 | 11.89137 | 11582 ft | 354 kts | 256° |
| 2026-05-01 08:42 | 48.20086 | 11.84300 | 12617 ft | 366 kts | 256° |
| 2026-05-01 08:43 | 48.19412 | 11.80592 | 13497 ft | 372 kts | 255° |
| 2026-05-01 08:43 | 48.18690 | 11.76838 | 14367 ft | 378 kts | 254° |
| 2026-05-01 08:43 | 48.17928 | 11.73039 | 15133 ft | 384 kts | 254° |
| 2026-05-01 08:43 | 48.17404 | 11.70491 | 15641 ft | 388 kts | 253° |
| 2026-05-01 08:44 | 48.16596 | 11.66603 | 16413 ft | 394 kts | 253° |
| 2026-05-01 08:44 | 48.15769 | 11.62660 | 17180 ft | 399 kts | 253° |
| 2026-05-01 08:44 | 48.14929 | 11.58665 | 17911 ft | 405 kts | 253° |
| 2026-05-01 08:44 | 48.14079 | 11.54628 | 18708 ft | 408 kts | 253° |
| 2026-05-01 08:45 | 48.13223 | 11.50559 | 19175 ft | 411 kts | 253° |
| 2026-05-01 08:45 | 48.12364 | 11.46480 | 19353 ft | 412 kts | 253° |
| 2026-05-01 08:45 | 48.11500 | 11.42379 | 19374 ft | 414 kts | 253° |
| 2026-05-01 08:45 | 48.10634 | 11.38272 | 19375 ft | 415 kts | 253° |
| 2026-05-01 08:46 | 48.09762 | 11.34144 | 19379 ft | 419 kts | 253° |
| 2026-05-01 08:46 | 48.08867 | 11.29918 | 19785 ft | 430 kts | 253° |
| 2026-05-01 08:46 | 48.07965 | 11.25667 | 20706 ft | 426 kts | 253° |
| 2026-05-01 08:46 | 48.07067 | 11.21445 | 21507 ft | 427 kts | 254° |
| 2026-05-01 08:47 | 48.06165 | 11.17210 | 22105 ft | 428 kts | 254° |
| 2026-05-01 08:47 | 48.05256 | 11.12957 | 22334 ft | 430 kts | 254° |
| 2026-05-01 08:47 | 48.04346 | 11.08701 | 22350 ft | 430 kts | 253° |
| 2026-05-01 08:47 | 48.03434 | 11.04450 | 22364 ft | 430 kts | 253° |
| 2026-05-01 08:48 | 48.03376 | 11.04177 | 22362 ft | 430 kts | 253° |
| 2026-05-01 08:50 | 48.02527 | 11.00229 | 22369 ft | 430 kts | 253° |
| 2026-05-01 08:50 | 48.01612 | 10.95982 | 22368 ft | 430 kts | 253° |
| 2026-05-01 08:51 | 48.00694 | 10.91729 | 22352 ft | 430 kts | 253° |
| 2026-05-01 08:51 | 47.99776 | 10.87482 | 22337 ft | 430 kts | 253° |
| 2026-05-01 08:51 | 47.98872 | 10.83230 | 22351 ft | 430 kts | 255° |
| 2026-05-01 08:51 | 47.97988 | 10.78968 | 22344 ft | 430 kts | 255° |
| 2026-05-01 08:52 | 47.97102 | 10.74714 | 22344 ft | 430 kts | 255° |
| 2026-05-01 08:52 | 47.96202 | 10.70452 | 22343 ft | 430 kts | 255° |
| 2026-05-01 08:52 | 47.95293 | 10.66207 | 22352 ft | 430 kts | 255° |
| 2026-05-01 08:52 | 47.94371 | 10.61957 | 22342 ft | 429 kts | 254° |
| 2026-05-01 08:53 | 47.93448 | 10.57739 | 22343 ft | 428 kts | 254° |
| 2026-05-01 08:53 | 47.92521 | 10.53517 | 22341 ft | 428 kts | 254° |
| 2026-05-01 08:53 | 47.91591 | 10.49296 | 22342 ft | 428 kts | 254° |
| 2026-05-01 08:53 | 47.90674 | 10.45144 | 22335 ft | 428 kts | 254° |
| 2026-05-01 08:54 | 47.89744 | 10.40937 | 22332 ft | 428 kts | 254° |
| 2026-05-01 08:54 | 47.88810 | 10.36724 | 22330 ft | 427 kts | 254° |
| 2026-05-01 08:54 | 47.87878 | 10.32527 | 22332 ft | 427 kts | 254° |
| 2026-05-01 08:54 | 47.86942 | 10.28318 | 22347 ft | 427 kts | 254° |
| 2026-05-01 08:55 | 47.86007 | 10.24120 | 22343 ft | 427 kts | 254° |
| 2026-05-01 08:55 | 47.85069 | 10.19919 | 22344 ft | 427 kts | 254° |
| 2026-05-01 08:55 | 47.84126 | 10.15705 | 22337 ft | 427 kts | 254° |
| 2026-05-01 08:55 | 47.83189 | 10.11527 | 22341 ft | 425 kts | 254° |
| 2026-05-01 08:56 | 47.82254 | 10.07362 | 22337 ft | 424 kts | 254° |
| 2026-05-01 08:56 | 47.81318 | 10.03203 | 22337 ft | 424 kts | 253° |
| 2026-05-01 08:56 | 47.80391 | 9.99093 | 22339 ft | 424 kts | 253° |
| 2026-05-01 08:56 | 47.79451 | 9.94934 | 22338 ft | 424 kts | 253° |
| 2026-05-01 08:57 | 47.78510 | 9.90779 | 22338 ft | 424 kts | 253° |
| 2026-05-01 08:57 | 47.77565 | 9.86617 | 22338 ft | 424 kts | 253° |
| 2026-05-01 08:57 | 47.76621 | 9.82462 | 22339 ft | 424 kts | 253° |
| 2026-05-01 08:57 | 47.75675 | 9.78306 | 22344 ft | 424 kts | 253° |
| 2026-05-01 08:58 | 47.74729 | 9.74156 | 22345 ft | 424 kts | 253° |
| 2026-05-01 08:58 | 47.73789 | 9.70000 | 22342 ft | 424 kts | 255° |
| 2026-05-01 08:58 | 47.73209 | 9.65730 | 22345 ft | 419 kts | 265° |
| 2026-05-01 08:58 | 47.72903 | 9.61432 | 22345 ft | 418 kts | 268° |
| 2026-05-01 08:59 | 47.72713 | 9.57127 | 22344 ft | 418 kts | 270° |
| 2026-05-01 08:59 | 47.72583 | 9.52805 | 22346 ft | 418 kts | 270° |
| 2026-05-01 08:59 | 47.72465 | 9.48482 | 22345 ft | 419 kts | 270° |
| 2026-05-01 08:59 | 47.72078 | 9.44191 | 22350 ft | 421 kts | 256° |
| 2026-05-01 09:00 | 47.70877 | 9.40231 | 22344 ft | 423 kts | 238° |
| 2026-05-01 09:00 | 47.69143 | 9.36770 | 22353 ft | 423 kts | 232° |
| 2026-05-01 09:00 | 47.67247 | 9.33347 | 22350 ft | 423 kts | 231° |
| 2026-05-01 09:00 | 47.65368 | 9.29990 | 22349 ft | 423 kts | 231° |
| 2026-05-01 09:01 | 47.63493 | 9.26624 | 22342 ft | 423 kts | 231° |
| 2026-05-01 09:01 | 47.61627 | 9.23260 | 22340 ft | 422 kts | 231° |
| 2026-05-01 09:01 | 47.59916 | 9.19801 | 22344 ft | 420 kts | 242° |
| 2026-05-01 09:01 | 47.58912 | 9.15786 | 22341 ft | 416 kts | 258° |
| 2026-05-01 09:02 | 47.58339 | 9.11578 | 22338 ft | 417 kts | 262° |
| 2026-05-01 09:02 | 47.57838 | 9.07337 | 22343 ft | 418 kts | 262° |
| 2026-05-01 09:02 | 47.57555 | 9.03069 | 22346 ft | 415 kts | 274° |
| 2026-05-01 09:02 | 47.57776 | 8.98819 | 22341 ft | 414 kts | 279° |
| 2026-05-01 09:03 | 47.58120 | 8.94569 | 22342 ft | 415 kts | 279° |
| 2026-05-01 09:03 | 47.58474 | 8.90325 | 22341 ft | 415 kts | 279° |
| 2026-05-01 09:03 | 47.58821 | 8.86077 | 22345 ft | 415 kts | 279° |
| 2026-05-01 09:03 | 47.59160 | 8.81828 | 22342 ft | 415 kts | 279° |
| 2026-05-01 09:04 | 47.59494 | 8.77577 | 22345 ft | 415 kts | 278° |
| 2026-05-01 09:04 | 47.59822 | 8.73331 | 22342 ft | 414 kts | 278° |
| 2026-05-01 09:04 | 47.60146 | 8.69117 | 22094 ft | 410 kts | 278° |